sensor_id;sensor_type;location;lat;lon;timestamp;temperature;humidity
23869;DHT22;12115;47.128;15.422;2022-12-10T00:01:28;3.90;99.90
23869;DHT22;12115;47.128;15.422;2022-12-10T00:03:56;3.90;99.90
23869;DHT22;12115;47.128;15.422;2022-12-10T00:06:25;3.90;99.90
23869;DHT22;12115;47.128;15.422;2022-12-10T00:08:54;3.90;99.90
23869;DHT22;12115;47.128;15.422;2022-12-10T00:11:22;3.90;99.90
23869;DHT22;12115;47.128;15.422;2022-12-10T00:13:51;3.90;99.90
23869;DHT22;12115;47.128;15.422;2022-12-10T00:16:20;3.90;99.90
23869;DHT22;12115;47.128;15.422;2022-12-10T00:18:49;3.80;99.90
23869;DHT22;12115;47.128;15.422;2022-12-10T00:21:26;3.80;99.90
23869;DHT22;12115;47.128;15.422;2022-12-10T00:23:54;3.80;99.90
23869;DHT22;12115;47.128;15.422;2022-12-10T00:26:25;3.90;99.90
23869;DHT22;12115;47.128;15.422;2022-12-10T00:28:52;3.90;99.90
23869;DHT22;12115;47.128;15.422;2022-12-10T00:31:26;3.90;99.90
23869;DHT22;12115;47.128;15.422;2022-12-10T00:34:00;3.90;99.90
23869;DHT22;12115;47.128;15.422;2022-12-10T00:36:34;3.80;99.90
23869;DHT22;12115;47.128;15.422;2022-12-10T00:39:03;3.80;99.90
23869;DHT22;12115;47.128;15.422;2022-12-10T00:41:31;3.80;99.90
23869;DHT22;12115;47.128;15.422;2022-12-10T00:44:00;3.90;99.90
23869;DHT22;12115;47.128;15.422;2022-12-10T00:46:28;3.90;99.90
23869;DHT22;12115;47.128;15.422;2022-12-10T00:48:58;3.90;99.90
23869;DHT22;12115;47.128;15.422;2022-12-10T00:51:26;3.90;99.90
23869;DHT22;12115;47.128;15.422;2022-12-10T00:53:56;3.90;99.90
23869;DHT22;12115;47.128;15.422;2022-12-10T00:56:27;3.90;99.90
23869;DHT22;12115;47.128;15.422;2022-12-10T00:58:55;3.90;99.90
23869;DHT22;12115;47.128;15.422;2022-12-10T01:01:31;3.90;99.90
23869;DHT22;12115;47.128;15.422;2022-12-10T01:04:07;3.90;99.90
23869;DHT22;12115;47.128;15.422;2022-12-10T01:06:40;3.90;99.90
23869;DHT22;12115;47.128;15.422;2022-12-10T01:09:15;3.90;99.90
23869;DHT22;12115;47.128;15.422;2022-12-10T01:11:45;3.90;99.90
23869;DHT22;12115;47.128;15.422;2022-12-10T01:14:16;3.80;99.90
23869;DHT22;12115;47.128;15.422;2022-12-10T01:16:47;3.80;99.90
23869;DHT22;12115;47.128;15.422;2022-12-10T01:19:16;3.80;99.90
23869;DHT22;12115;47.128;15.422;2022-12-10T01:21:43;3.90;99.90
23869;DHT22;12115;47.128;15.422;2022-12-10T01:24:11;3.90;99.90
23869;DHT22;12115;47.128;15.422;2022-12-10T01:26:39;3.90;99.90
23869;DHT22;12115;47.128;15.422;2022-12-10T01:29:07;3.90;99.90
23869;DHT22;12115;47.128;15.422;2022-12-10T01:31:36;3.90;99.90
23869;DHT22;12115;47.128;15.422;2022-12-10T01:34:06;3.80;99.90
23869;DHT22;12115;47.128;15.422;2022-12-10T01:36:36;3.80;99.90
23869;DHT22;12115;47.128;15.422;2022-12-10T01:39:07;3.80;99.90
23869;DHT22;12115;47.128;15.422;2022-12-10T01:41:41;3.80;99.90
23869;DHT22;12115;47.128;15.422;2022-12-10T01:46:41;3.90;99.90
23869;DHT22;12115;47.128;15.422;2022-12-10T01:49:11;3.90;99.90
23869;DHT22;12115;47.128;15.422;2022-12-10T01:51:40;3.90;99.90
23869;DHT22;12115;47.128;15.422;2022-12-10T01:54:12;3.90;99.90
23869;DHT22;12115;47.128;15.422;2022-12-10T01:56:42;3.90;99.90
23869;DHT22;12115;47.128;15.422;2022-12-10T01:59:11;4.00;99.90
23869;DHT22;12115;47.128;15.422;2022-12-10T02:01:49;4.00;99.90
23869;DHT22;12115;47.128;15.422;2022-12-10T02:07:14;3.90;99.90
23869;DHT22;12115;47.128;15.422;2022-12-10T02:10:01;3.90;99.90
23869;DHT22;12115;47.128;15.422;2022-12-10T02:17:48;4.00;99.90
23869;DHT22;12115;47.128;15.422;2022-12-10T02:20:28;4.00;99.90
23869;DHT22;12115;47.128;15.422;2022-12-10T02:23:03;4.00;99.90
23869;DHT22;12115;47.128;15.422;2022-12-10T02:31:11;4.00;99.90
23869;DHT22;12115;47.128;15.422;2022-12-10T02:33:45;4.10;99.90
23869;DHT22;12115;47.128;15.422;2022-12-10T02:36:14;4.00;99.90
23869;DHT22;12115;47.128;15.422;2022-12-10T02:38:42;4.10;99.90
23869;DHT22;12115;47.128;15.422;2022-12-10T02:41:23;4.10;99.90
23869;DHT22;12115;47.128;15.422;2022-12-10T02:43:54;4.10;99.90
23869;DHT22;12115;47.128;15.422;2022-12-10T02:46:24;4.10;99.90
23869;DHT22;12115;47.128;15.422;2022-12-10T02:48:54;4.10;99.90
23869;DHT22;12115;47.128;15.422;2022-12-10T02:51:22;4.10;99.90
23869;DHT22;12115;47.128;15.422;2022-12-10T02:53:59;4.00;99.90
23869;DHT22;12115;47.128;15.422;2022-12-10T02:56:54;4.10;99.90
23869;DHT22;12115;47.128;15.422;2022-12-10T03:02:16;4.20;99.90
23869;DHT22;12115;47.128;15.422;2022-12-10T03:07:48;4.20;99.90
23869;DHT22;12115;47.128;15.422;2022-12-10T03:10:41;4.20;99.90
23869;DHT22;12115;47.128;15.422;2022-12-10T03:13:13;4.20;99.90
23869;DHT22;12115;47.128;15.422;2022-12-10T03:15:42;4.20;99.90
23869;DHT22;12115;47.128;15.422;2022-12-10T03:18:12;4.20;99.90
23869;DHT22;12115;47.128;15.422;2022-12-10T03:20:44;4.10;99.90
23869;DHT22;12115;47.128;15.422;2022-12-10T03:23:16;4.20;99.90
23869;DHT22;12115;47.128;15.422;2022-12-10T03:25:45;4.20;99.90
23869;DHT22;12115;47.128;15.422;2022-12-10T03:28:13;4.20;99.90
23869;DHT22;12115;47.128;15.422;2022-12-10T03:30:42;4.20;99.90
23869;DHT22;12115;47.128;15.422;2022-12-10T03:33:10;4.20;99.90
23869;DHT22;12115;47.128;15.422;2022-12-10T03:35:38;4.20;99.90
23869;DHT22;12115;47.128;15.422;2022-12-10T03:54:01;4.20;99.90
23869;DHT22;12115;47.128;15.422;2022-12-10T03:56:28;4.30;99.90
23869;DHT22;12115;47.128;15.422;2022-12-10T03:58:55;4.30;99.90
23869;DHT22;12115;47.128;15.422;2022-12-10T04:01:22;4.30;99.90
23869;DHT22;12115;47.128;15.422;2022-12-10T04:03:49;4.20;99.90
23869;DHT22;12115;47.128;15.422;2022-12-10T04:06:18;4.30;99.90
23869;DHT22;12115;47.128;15.422;2022-12-10T04:08:46;4.30;99.90
23869;DHT22;12115;47.128;15.422;2022-12-10T04:11:14;4.30;99.90
23869;DHT22;12115;47.128;15.422;2022-12-10T04:13:42;4.30;99.90
23869;DHT22;12115;47.128;15.422;2022-12-10T04:16:30;4.30;99.90
23869;DHT22;12115;47.128;15.422;2022-12-10T04:19:05;4.30;99.90
23869;DHT22;12115;47.128;15.422;2022-12-10T04:21:33;4.30;99.90
23869;DHT22;12115;47.128;15.422;2022-12-10T04:24:22;4.30;99.90
23869;DHT22;12115;47.128;15.422;2022-12-10T04:27:12;4.30;99.90
23869;DHT22;12115;47.128;15.422;2022-12-10T04:29:40;4.30;99.90
23869;DHT22;12115;47.128;15.422;2022-12-10T04:32:07;4.40;99.90
23869;DHT22;12115;47.128;15.422;2022-12-10T04:34:34;4.40;99.90
23869;DHT22;12115;47.128;15.422;2022-12-10T04:37:03;4.40;99.90
23869;DHT22;12115;47.128;15.422;2022-12-10T04:39:30;4.40;99.90
23869;DHT22;12115;47.128;15.422;2022-12-10T04:41:59;4.40;99.90
23869;DHT22;12115;47.128;15.422;2022-12-10T04:44:26;4.40;99.90
23869;DHT22;12115;47.128;15.422;2022-12-10T04:46:53;4.40;99.90
23869;DHT22;12115;47.128;15.422;2022-12-10T04:49:21;4.40;99.90
23869;DHT22;12115;47.128;15.422;2022-12-10T04:51:48;4.40;99.90
23869;DHT22;12115;47.128;15.422;2022-12-10T04:54:16;4.40;99.90
23869;DHT22;12115;47.128;15.422;2022-12-10T04:56:43;4.50;99.90
23869;DHT22;12115;47.128;15.422;2022-12-10T04:59:11;4.40;99.90
23869;DHT22;12115;47.128;15.422;2022-12-10T05:01:38;4.40;99.90
23869;DHT22;12115;47.128;15.422;2022-12-10T05:04:07;4.50;99.90
23869;DHT22;12115;47.128;15.422;2022-12-10T05:06:35;4.50;99.90
23869;DHT22;12115;47.128;15.422;2022-12-10T05:09:03;4.50;99.90
23869;DHT22;12115;47.128;15.422;2022-12-10T05:11:31;4.50;99.90
23869;DHT22;12115;47.128;15.422;2022-12-10T05:13:59;4.50;99.90
23869;DHT22;12115;47.128;15.422;2022-12-10T05:16:28;4.50;99.90
23869;DHT22;12115;47.128;15.422;2022-12-10T05:18:56;4.50;99.90
23869;DHT22;12115;47.128;15.422;2022-12-10T05:21:25;4.50;99.90
23869;DHT22;12115;47.128;15.422;2022-12-10T05:24:13;4.50;99.90
23869;DHT22;12115;47.128;15.422;2022-12-10T05:26:41;4.50;99.90
23869;DHT22;12115;47.128;15.422;2022-12-10T05:29:08;4.50;99.90
23869;DHT22;12115;47.128;15.422;2022-12-10T05:31:35;4.50;99.90
23869;DHT22;12115;47.128;15.422;2022-12-10T05:34:03;4.60;99.90
23869;DHT22;12115;47.128;15.422;2022-12-10T05:36:31;4.60;99.90
23869;DHT22;12115;47.128;15.422;2022-12-10T05:38:58;4.60;99.90
23869;DHT22;12115;47.128;15.422;2022-12-10T05:41:28;4.60;99.90
23869;DHT22;12115;47.128;15.422;2022-12-10T05:43:57;4.60;99.90
23869;DHT22;12115;47.128;15.422;2022-12-10T05:46:27;4.50;99.90
23869;DHT22;12115;47.128;15.422;2022-12-10T05:48:55;4.50;99.90
23869;DHT22;12115;47.128;15.422;2022-12-10T05:51:25;4.50;99.90
23869;DHT22;12115;47.128;15.422;2022-12-10T05:53:53;4.50;99.90
23869;DHT22;12115;47.128;15.422;2022-12-10T05:56:22;4.60;99.90
23869;DHT22;12115;47.128;15.422;2022-12-10T05:58:53;4.60;99.90
23869;DHT22;12115;47.128;15.422;2022-12-10T06:01:24;4.60;99.90
23869;DHT22;12115;47.128;15.422;2022-12-10T06:03:51;4.60;99.90
23869;DHT22;12115;47.128;15.422;2022-12-10T06:06:28;4.60;99.90
23869;DHT22;12115;47.128;15.422;2022-12-10T06:08:56;4.60;99.90
23869;DHT22;12115;47.128;15.422;2022-12-10T06:11:24;4.60;99.90
23869;DHT22;12115;47.128;15.422;2022-12-10T06:13:51;4.60;99.90
23869;DHT22;12115;47.128;15.422;2022-12-10T06:16:23;4.60;99.90
23869;DHT22;12115;47.128;15.422;2022-12-10T06:18:51;4.50;99.90
23869;DHT22;12115;47.128;15.422;2022-12-10T06:21:19;4.50;99.90
23869;DHT22;12115;47.128;15.422;2022-12-10T06:23:48;4.60;99.90
23869;DHT22;12115;47.128;15.422;2022-12-10T06:26:23;4.60;99.90
23869;DHT22;12115;47.128;15.422;2022-12-10T06:28:51;4.60;99.90
23869;DHT22;12115;47.128;15.422;2022-12-10T06:31:19;4.60;99.90
23869;DHT22;12115;47.128;15.422;2022-12-10T06:33:47;4.60;99.90
23869;DHT22;12115;47.128;15.422;2022-12-10T06:36:16;4.60;99.90
23869;DHT22;12115;47.128;15.422;2022-12-10T06:38:44;4.60;99.90
23869;DHT22;12115;47.128;15.422;2022-12-10T06:41:13;4.70;99.90
23869;DHT22;12115;47.128;15.422;2022-12-10T06:43:41;4.60;99.90
23869;DHT22;12115;47.128;15.422;2022-12-10T06:46:10;4.60;99.90
23869;DHT22;12115;47.128;15.422;2022-12-10T06:48:38;4.60;99.90
23869;DHT22;12115;47.128;15.422;2022-12-10T06:51:06;4.60;99.90
23869;DHT22;12115;47.128;15.422;2022-12-10T06:53:35;4.60;99.90
23869;DHT22;12115;47.128;15.422;2022-12-10T06:56:03;4.60;99.90
23869;DHT22;12115;47.128;15.422;2022-12-10T06:58:31;4.60;99.90
23869;DHT22;12115;47.128;15.422;2022-12-10T07:03:30;4.70;99.90
23869;DHT22;12115;47.128;15.422;2022-12-10T07:05:58;4.60;99.90
23869;DHT22;12115;47.128;15.422;2022-12-10T07:14:23;4.70;99.90
23869;DHT22;12115;47.128;15.422;2022-12-10T07:16:51;4.60;99.90
23869;DHT22;12115;47.128;15.422;2022-12-10T07:19:18;4.70;99.90
23869;DHT22;12115;47.128;15.422;2022-12-10T07:21:45;4.70;99.90
23869;DHT22;12115;47.128;15.422;2022-12-10T07:24:17;4.70;99.90
23869;DHT22;12115;47.128;15.422;2022-12-10T07:26:45;4.70;99.90
23869;DHT22;12115;47.128;15.422;2022-12-10T07:29:15;4.80;99.90
23869;DHT22;12115;47.128;15.422;2022-12-10T07:31:43;4.80;99.90
23869;DHT22;12115;47.128;15.422;2022-12-10T07:34:11;4.80;99.90
23869;DHT22;12115;47.128;15.422;2022-12-10T07:36:38;4.80;99.90
23869;DHT22;12115;47.128;15.422;2022-12-10T07:39:08;4.80;99.90
23869;DHT22;12115;47.128;15.422;2022-12-10T07:41:36;4.80;99.90
23869;DHT22;12115;47.128;15.422;2022-12-10T07:44:04;4.80;99.90
23869;DHT22;12115;47.128;15.422;2022-12-10T07:46:33;4.80;99.90
23869;DHT22;12115;47.128;15.422;2022-12-10T07:49:01;4.80;99.90
23869;DHT22;12115;47.128;15.422;2022-12-10T07:51:29;4.80;99.90
23869;DHT22;12115;47.128;15.422;2022-12-10T07:53:56;4.80;99.90
23869;DHT22;12115;47.128;15.422;2022-12-10T07:56:24;4.90;99.90
23869;DHT22;12115;47.128;15.422;2022-12-10T07:58:52;4.90;99.90
23869;DHT22;12115;47.128;15.422;2022-12-10T08:01:25;4.90;99.90
23869;DHT22;12115;47.128;15.422;2022-12-10T08:03:53;4.90;99.90
23869;DHT22;12115;47.128;15.422;2022-12-10T08:06:25;4.80;99.90
23869;DHT22;12115;47.128;15.422;2022-12-10T08:08:53;4.80;99.90
23869;DHT22;12115;47.128;15.422;2022-12-10T08:11:21;4.90;99.90
23869;DHT22;12115;47.128;15.422;2022-12-10T08:13:49;4.90;99.90
23869;DHT22;12115;47.128;15.422;2022-12-10T08:16:25;4.90;99.90
23869;DHT22;12115;47.128;15.422;2022-12-10T08:18:54;4.90;99.90
23869;DHT22;12115;47.128;15.422;2022-12-10T08:21:24;4.90;99.90
23869;DHT22;12115;47.128;15.422;2022-12-10T08:23:53;4.80;99.90
23869;DHT22;12115;47.128;15.422;2022-12-10T08:26:23;4.90;99.90
23869;DHT22;12115;47.128;15.422;2022-12-10T08:28:53;4.90;99.90
23869;DHT22;12115;47.128;15.422;2022-12-10T08:31:21;4.90;99.90
23869;DHT22;12115;47.128;15.422;2022-12-10T08:33:49;4.90;99.90
23869;DHT22;12115;47.128;15.422;2022-12-10T08:36:17;4.90;99.90
23869;DHT22;12115;47.128;15.422;2022-12-10T08:38:45;4.90;99.90
23869;DHT22;12115;47.128;15.422;2022-12-10T08:41:20;4.90;99.90
23869;DHT22;12115;47.128;15.422;2022-12-10T08:43:48;4.90;99.90
23869;DHT22;12115;47.128;15.422;2022-12-10T08:46:19;5.00;99.90
23869;DHT22;12115;47.128;15.422;2022-12-10T08:48:46;5.00;99.90
23869;DHT22;12115;47.128;15.422;2022-12-10T08:51:15;4.90;99.90
23869;DHT22;12115;47.128;15.422;2022-12-10T08:53:46;5.00;99.90
23869;DHT22;12115;47.128;15.422;2022-12-10T08:56:14;5.00;99.90
23869;DHT22;12115;47.128;15.422;2022-12-10T08:58:41;5.00;99.90
23869;DHT22;12115;47.128;15.422;2022-12-10T09:01:13;5.00;99.90
23869;DHT22;12115;47.128;15.422;2022-12-10T09:03:40;5.00;99.90
23869;DHT22;12115;47.128;15.422;2022-12-10T09:06:13;5.00;99.90
23869;DHT22;12115;47.128;15.422;2022-12-10T09:08:41;5.00;99.90
23869;DHT22;12115;47.128;15.422;2022-12-10T09:11:12;5.00;99.90
23869;DHT22;12115;47.128;15.422;2022-12-10T09:13:40;5.00;99.90
23869;DHT22;12115;47.128;15.422;2022-12-10T09:16:08;5.00;99.90
23869;DHT22;12115;47.128;15.422;2022-12-10T09:18:35;5.00;99.90
23869;DHT22;12115;47.128;15.422;2022-12-10T09:21:06;5.10;99.90
23869;DHT22;12115;47.128;15.422;2022-12-10T09:23:34;5.10;99.90
23869;DHT22;12115;47.128;15.422;2022-12-10T09:26:05;5.10;99.90
23869;DHT22;12115;47.128;15.422;2022-12-10T09:28:32;5.10;99.90
23869;DHT22;12115;47.128;15.422;2022-12-10T09:31:01;5.10;99.90
23869;DHT22;12115;47.128;15.422;2022-12-10T09:33:28;5.10;99.90
23869;DHT22;12115;47.128;15.422;2022-12-10T09:35:55;5.10;99.90
23869;DHT22;12115;47.128;15.422;2022-12-10T09:38:23;5.20;99.90
23869;DHT22;12115;47.128;15.422;2022-12-10T09:41:33;5.20;99.90
23869;DHT22;12115;47.128;15.422;2022-12-10T09:43:55;5.20;99.90
23869;DHT22;12115;47.128;15.422;2022-12-10T09:51:55;5.30;99.90
23869;DHT22;12115;47.128;15.422;2022-12-10T09:54:25;5.30;99.90
23869;DHT22;12115;47.128;15.422;2022-12-10T09:56:55;5.30;99.90
23869;DHT22;12115;47.128;15.422;2022-12-10T09:59:31;5.30;99.90
23869;DHT22;12115;47.128;15.422;2022-12-10T10:05:08;5.30;99.90
23869;DHT22;12115;47.128;15.422;2022-12-10T10:07:42;5.30;99.90
23869;DHT22;12115;47.128;15.422;2022-12-10T10:10:34;5.20;99.90
23869;DHT22;12115;47.128;15.422;2022-12-10T10:15:44;5.20;99.90
23869;DHT22;12115;47.128;15.422;2022-12-10T10:18:33;5.20;99.90
23869;DHT22;12115;47.128;15.422;2022-12-10T10:21:23;5.20;99.90
23869;DHT22;12115;47.128;15.422;2022-12-10T10:23:51;5.20;99.90
23869;DHT22;12115;47.128;15.422;2022-12-10T10:26:18;5.20;99.90
23869;DHT22;12115;47.128;15.422;2022-12-10T10:28:45;5.10;99.90
23869;DHT22;12115;47.128;15.422;2022-12-10T10:31:28;5.20;99.90
23869;DHT22;12115;47.128;15.422;2022-12-10T10:34:01;5.20;99.90
23869;DHT22;12115;47.128;15.422;2022-12-10T10:36:36;5.20;99.90
23869;DHT22;12115;47.128;15.422;2022-12-10T10:41:47;5.20;99.90
23869;DHT22;12115;47.128;15.422;2022-12-10T10:44:27;5.20;99.90
23869;DHT22;12115;47.128;15.422;2022-12-10T10:46:55;5.20;99.90
23869;DHT22;12115;47.128;15.422;2022-12-10T10:49:31;5.20;99.90
23869;DHT22;12115;47.128;15.422;2022-12-10T10:52:13;5.10;99.90
23869;DHT22;12115;47.128;15.422;2022-12-10T10:54:46;5.00;99.90
23869;DHT22;12115;47.128;15.422;2022-12-10T10:57:23;5.10;99.90
23869;DHT22;12115;47.128;15.422;2022-12-10T11:00:00;5.10;99.90
23869;DHT22;12115;47.128;15.422;2022-12-10T11:02:37;5.00;99.90
23869;DHT22;12115;47.128;15.422;2022-12-10T11:08:04;5.10;99.90
23869;DHT22;12115;47.128;15.422;2022-12-10T11:10:32;5.20;99.90
23869;DHT22;12115;47.128;15.422;2022-12-10T11:13:14;5.10;99.90
23869;DHT22;12115;47.128;15.422;2022-12-10T11:15:44;5.10;99.90
23869;DHT22;12115;47.128;15.422;2022-12-10T11:18:43;5.10;99.90
23869;DHT22;12115;47.128;15.422;2022-12-10T11:21:21;5.10;99.90
23869;DHT22;12115;47.128;15.422;2022-12-10T11:23:54;5.10;99.90
23869;DHT22;12115;47.128;15.422;2022-12-10T11:32:41;5.20;99.90
23869;DHT22;12115;47.128;15.422;2022-12-10T11:38:45;5.20;99.90
23869;DHT22;12115;47.128;15.422;2022-12-10T11:42:00;5.20;99.90
23869;DHT22;12115;47.128;15.422;2022-12-10T11:44:39;5.10;99.90
23869;DHT22;12115;47.128;15.422;2022-12-10T11:50:33;5.20;99.90
23869;DHT22;12115;47.128;15.422;2022-12-10T11:55:59;5.30;99.90
23869;DHT22;12115;47.128;15.422;2022-12-10T12:02:41;5.30;99.90
23869;DHT22;12115;47.128;15.422;2022-12-10T12:16:40;5.20;99.90
23869;DHT22;12115;47.128;15.422;2022-12-10T12:19:16;5.20;99.90
23869;DHT22;12115;47.128;15.422;2022-12-10T12:21:46;5.10;99.90
23869;DHT22;12115;47.128;15.422;2022-12-10T12:24:16;5.10;99.90
23869;DHT22;12115;47.128;15.422;2022-12-10T12:26:57;5.10;99.90
23869;DHT22;12115;47.128;15.422;2022-12-10T12:29:37;5.10;99.90
23869;DHT22;12115;47.128;15.422;2022-12-10T12:32:15;5.10;99.90
23869;DHT22;12115;47.128;15.422;2022-12-10T12:34:54;5.10;99.90
23869;DHT22;12115;47.128;15.422;2022-12-10T12:37:49;5.10;99.90
23869;DHT22;12115;47.128;15.422;2022-12-10T12:45:58;5.20;99.90
23869;DHT22;12115;47.128;15.422;2022-12-10T12:51:32;5.20;99.90
23869;DHT22;12115;47.128;15.422;2022-12-10T12:54:00;5.20;99.90
23869;DHT22;12115;47.128;15.422;2022-12-10T13:04:39;5.20;99.90
23869;DHT22;12115;47.128;15.422;2022-12-10T13:09:48;5.20;99.90
23869;DHT22;12115;47.128;15.422;2022-12-10T13:17:33;5.20;99.90
23869;DHT22;12115;47.128;15.422;2022-12-10T13:28:31;5.10;99.90
23869;DHT22;12115;47.128;15.422;2022-12-10T13:37:02;5.10;99.90
23869;DHT22;12115;47.128;15.422;2022-12-10T13:45:01;5.00;99.90
23869;DHT22;12115;47.128;15.422;2022-12-10T13:50:01;5.00;99.90
23869;DHT22;12115;47.128;15.422;2022-12-10T13:52:35;5.00;99.90
23869;DHT22;12115;47.128;15.422;2022-12-10T13:58:17;5.00;99.90
23869;DHT22;12115;47.128;15.422;2022-12-10T14:06:20;4.80;99.90
23869;DHT22;12115;47.128;15.422;2022-12-10T14:09:04;4.70;99.90
23869;DHT22;12115;47.128;15.422;2022-12-10T14:11:38;4.70;99.90
23869;DHT22;12115;47.128;15.422;2022-12-10T14:14:11;4.70;99.90
23869;DHT22;12115;47.128;15.422;2022-12-10T14:16:40;4.70;99.90
23869;DHT22;12115;47.128;15.422;2022-12-10T14:19:13;4.60;99.90
23869;DHT22;12115;47.128;15.422;2022-12-10T14:21:42;4.60;99.90
23869;DHT22;12115;47.128;15.422;2022-12-10T14:24:29;4.60;99.90
23869;DHT22;12115;47.128;15.422;2022-12-10T14:27:03;4.60;99.90
23869;DHT22;12115;47.128;15.422;2022-12-10T14:29:35;4.50;99.90
23869;DHT22;12115;47.128;15.422;2022-12-10T14:32:03;4.40;99.90
23869;DHT22;12115;47.128;15.422;2022-12-10T14:34:30;4.50;99.90
23869;DHT22;12115;47.128;15.422;2022-12-10T14:37:00;4.40;99.90
23869;DHT22;12115;47.128;15.422;2022-12-10T14:39:29;4.50;99.90
23869;DHT22;12115;47.128;15.422;2022-12-10T14:42:03;4.50;99.90
23869;DHT22;12115;47.128;15.422;2022-12-10T14:44:31;4.50;99.90
23869;DHT22;12115;47.128;15.422;2022-12-10T14:47:06;4.50;99.90
23869;DHT22;12115;47.128;15.422;2022-12-10T14:49:40;4.50;99.90
23869;DHT22;12115;47.128;15.422;2022-12-10T14:52:20;4.40;99.90
23869;DHT22;12115;47.128;15.422;2022-12-10T14:54:48;4.40;99.90
23869;DHT22;12115;47.128;15.422;2022-12-10T14:58:05;4.40;99.90
23869;DHT22;12115;47.128;15.422;2022-12-10T15:00:21;4.40;99.90
23869;DHT22;12115;47.128;15.422;2022-12-10T15:03:01;4.40;99.90
23869;DHT22;12115;47.128;15.422;2022-12-10T15:05:33;4.30;99.90
23869;DHT22;12115;47.128;15.422;2022-12-10T15:08:15;4.30;99.90
23869;DHT22;12115;47.128;15.422;2022-12-10T15:10:46;4.30;99.90
23869;DHT22;12115;47.128;15.422;2022-12-10T15:13:31;4.30;99.90
23869;DHT22;12115;47.128;15.422;2022-12-10T15:16:00;4.20;99.90
23869;DHT22;12115;47.128;15.422;2022-12-10T15:18:32;4.30;99.90
23869;DHT22;12115;47.128;15.422;2022-12-10T15:21:21;4.30;99.90
23869;DHT22;12115;47.128;15.422;2022-12-10T15:23:49;4.20;99.90
23869;DHT22;12115;47.128;15.422;2022-12-10T15:26:23;4.30;99.90
23869;DHT22;12115;47.128;15.422;2022-12-10T15:29:30;4.20;99.90
23869;DHT22;12115;47.128;15.422;2022-12-10T15:34:52;4.10;99.90
23869;DHT22;12115;47.128;15.422;2022-12-10T15:37:27;4.10;99.90
23869;DHT22;12115;47.128;15.422;2022-12-10T15:40:02;4.10;99.90
23869;DHT22;12115;47.128;15.422;2022-12-10T15:45:24;4.00;99.90
23869;DHT22;12115;47.128;15.422;2022-12-10T15:48:08;4.00;99.90
23869;DHT22;12115;47.128;15.422;2022-12-10T15:50:49;4.00;99.90
23869;DHT22;12115;47.128;15.422;2022-12-10T15:53:34;3.90;99.90
23869;DHT22;12115;47.128;15.422;2022-12-10T15:56:23;3.80;99.90
23869;DHT22;12115;47.128;15.422;2022-12-10T15:58:56;3.80;99.90
23869;DHT22;12115;47.128;15.422;2022-12-10T16:01:30;3.70;99.90
23869;DHT22;12115;47.128;15.422;2022-12-10T16:04:03;3.70;99.90
23869;DHT22;12115;47.128;15.422;2022-12-10T16:06:34;3.80;99.90
23869;DHT22;12115;47.128;15.422;2022-12-10T16:09:08;3.70;99.90
23869;DHT22;12115;47.128;15.422;2022-12-10T16:11:42;3.80;99.90
23869;DHT22;12115;47.128;15.422;2022-12-10T16:14:24;3.70;99.90
23869;DHT22;12115;47.128;15.422;2022-12-10T16:16:55;3.70;99.90
23869;DHT22;12115;47.128;15.422;2022-12-10T16:19:26;3.70;99.90
23869;DHT22;12115;47.128;15.422;2022-12-10T16:22:02;3.70;99.90
23869;DHT22;12115;47.128;15.422;2022-12-10T16:24:34;3.70;99.90
23869;DHT22;12115;47.128;15.422;2022-12-10T16:27:22;3.70;99.90
23869;DHT22;12115;47.128;15.422;2022-12-10T16:32:47;3.60;99.90
23869;DHT22;12115;47.128;15.422;2022-12-10T16:35:23;3.60;99.90
23869;DHT22;12115;47.128;15.422;2022-12-10T16:37:58;3.50;99.90
23869;DHT22;12115;47.128;15.422;2022-12-10T16:40:43;3.60;99.90
23869;DHT22;12115;47.128;15.422;2022-12-10T16:43:25;3.60;99.90
23869;DHT22;12115;47.128;15.422;2022-12-10T16:46:09;3.50;99.90
23869;DHT22;12115;47.128;15.422;2022-12-10T16:48:41;3.60;99.90
23869;DHT22;12115;47.128;15.422;2022-12-10T16:51:27;3.60;99.90
23869;DHT22;12115;47.128;15.422;2022-12-10T16:54:00;3.50;99.90
23869;DHT22;12115;47.128;15.422;2022-12-10T16:56:39;3.50;99.90
23869;DHT22;12115;47.128;15.422;2022-12-10T16:59:11;3.50;99.90
23869;DHT22;12115;47.128;15.422;2022-12-10T17:01:42;3.40;99.90
23869;DHT22;12115;47.128;15.422;2022-12-10T17:04:29;3.30;99.90
23869;DHT22;12115;47.128;15.422;2022-12-10T17:07:09;3.30;99.90
23869;DHT22;12115;47.128;15.422;2022-12-10T17:09:56;3.40;99.90
23869;DHT22;12115;47.128;15.422;2022-12-10T17:12:32;3.40;99.90
23869;DHT22;12115;47.128;15.422;2022-12-10T17:15:08;3.30;99.90
23869;DHT22;12115;47.128;15.422;2022-12-10T17:17:49;3.40;99.90
23869;DHT22;12115;47.128;15.422;2022-12-10T17:20:45;3.40;99.90
23869;DHT22;12115;47.128;15.422;2022-12-10T17:23:19;3.30;99.90
23869;DHT22;12115;47.128;15.422;2022-12-10T17:25:55;3.30;99.90
23869;DHT22;12115;47.128;15.422;2022-12-10T17:28:51;3.30;99.90
23869;DHT22;12115;47.128;15.422;2022-12-10T17:31:31;3.20;99.90
23869;DHT22;12115;47.128;15.422;2022-12-10T17:34:12;3.20;99.90
23869;DHT22;12115;47.128;15.422;2022-12-10T17:37:11;3.20;99.90
23869;DHT22;12115;47.128;15.422;2022-12-10T17:42:50;3.20;99.90
23869;DHT22;12115;47.128;15.422;2022-12-10T17:45:49;3.20;99.90
23869;DHT22;12115;47.128;15.422;2022-12-10T17:48:41;3.20;99.90
23869;DHT22;12115;47.128;15.422;2022-12-10T17:51:34;3.20;99.90
23869;DHT22;12115;47.128;15.422;2022-12-10T17:54:16;3.20;99.90
23869;DHT22;12115;47.128;15.422;2022-12-10T17:57:31;3.20;99.90
23869;DHT22;12115;47.128;15.422;2022-12-10T18:00:21;3.20;99.90
23869;DHT22;12115;47.128;15.422;2022-12-10T18:03:05;3.10;99.90
23869;DHT22;12115;47.128;15.422;2022-12-10T18:06:19;3.10;99.90
23869;DHT22;12115;47.128;15.422;2022-12-10T18:09:09;3.10;99.90
23869;DHT22;12115;47.128;15.422;2022-12-10T18:12:01;3.00;99.90
23869;DHT22;12115;47.128;15.422;2022-12-10T18:14:41;3.00;99.90
23869;DHT22;12115;47.128;15.422;2022-12-10T18:17:28;3.00;99.90
23869;DHT22;12115;47.128;15.422;2022-12-10T18:20:34;3.00;99.90
23869;DHT22;12115;47.128;15.422;2022-12-10T18:23:30;3.00;99.90
23869;DHT22;12115;47.128;15.422;2022-12-10T18:26:41;3.10;99.90
23869;DHT22;12115;47.128;15.422;2022-12-10T18:29:31;3.10;99.90
23869;DHT22;12115;47.128;15.422;2022-12-10T18:32:12;3.10;99.90
23869;DHT22;12115;47.128;15.422;2022-12-10T18:34:40;3.10;99.90
23869;DHT22;12115;47.128;15.422;2022-12-10T18:37:17;3.00;99.90
23869;DHT22;12115;47.128;15.422;2022-12-10T18:39:52;3.00;99.90
23869;DHT22;12115;47.128;15.422;2022-12-10T18:42:30;3.10;99.90
23869;DHT22;12115;47.128;15.422;2022-12-10T18:45:08;3.00;99.90
23869;DHT22;12115;47.128;15.422;2022-12-10T18:47:52;3.10;99.90
23869;DHT22;12115;47.128;15.422;2022-12-10T18:50:32;3.10;99.90
23869;DHT22;12115;47.128;15.422;2022-12-10T18:53:02;3.10;99.90